BCS6 LEBL-LFMN
Flight info
| Callsign | BCS6 |
|---|---|
| Flight time | 0h 49m |
| Altitude | 30000 |
| Route | DALIN L16 BGR L110 DIBER DCT SOSUR DCT SOFFY DCT MRM DCT ABLAK |
| Aircraft | A306/H-SDE3FGHIRWY/LB1 |
Departure
| Time | 2026-05-04 15:35 |
|---|---|
| Airport | Josep Tarradellas Barcelona-El Prat Airport (LEBL) |
Arrival
| Time | 2026-05-04 16:25 |
|---|---|
| Airport | Nice-Côte d'Azur Airport (LFMN) |
| Time | Latitude | Longitude | Altitude | Speed | Heading |
|---|---|---|---|---|---|
| 2026-05-04 15:14 | 41.29829 | 2.06765 | 31 ft | 0 kts | 245° |
| 2026-05-04 15:16 | 41.29717 | 2.06761 | 27 ft | 11 kts | 158° |
| 2026-05-04 15:16 | 41.29655 | 2.06805 | 23 ft | 9 kts | 148° |
| 2026-05-04 15:16 | 41.29597 | 2.06799 | 23 ft | 1 kts | 227° |
| 2026-05-04 15:17 | 41.29574 | 2.06741 | 25 ft | 16 kts | 247° |
| 2026-05-04 15:17 | 41.29499 | 2.06523 | 24 ft | 9 kts | 244° |
| 2026-05-04 15:17 | 41.29480 | 2.06470 | 22 ft | 5 kts | 245° |
| 2026-05-04 15:18 | 41.29443 | 2.06372 | 23 ft | 19 kts | 242° |
| 2026-05-04 15:18 | 41.29400 | 2.06235 | 24 ft | 10 kts | 248° |
| 2026-05-04 15:18 | 41.29377 | 2.06160 | 26 ft | 8 kts | 248° |
| 2026-05-04 15:19 | 41.29308 | 2.06142 | 23 ft | 8 kts | 154° |
| 2026-05-04 15:19 | 41.29288 | 2.06155 | 25 ft | 0 kts | 154° |
| 2026-05-04 15:20 | 41.29287 | 2.06155 | 24 ft | 2 kts | 154° |
| 2026-05-04 15:20 | 41.29242 | 2.06184 | 24 ft | 12 kts | 155° |
| 2026-05-04 15:20 | 41.29146 | 2.06242 | 22 ft | 18 kts | 156° |
| 2026-05-04 15:20 | 41.29070 | 2.06290 | 22 ft | 8 kts | 143° |
| 2026-05-04 15:21 | 41.29050 | 2.06328 | 23 ft | 2 kts | 113° |
| 2026-05-04 15:21 | 41.29038 | 2.06376 | 23 ft | 11 kts | 108° |
| 2026-05-04 15:21 | 41.29006 | 2.06544 | 26 ft | 3 kts | 81° |
| 2026-05-04 15:22 | 41.29023 | 2.06608 | 25 ft | 14 kts | 65° |
| 2026-05-04 15:22 | 41.29059 | 2.06709 | 24 ft | 9 kts | 65° |
| 2026-05-04 15:22 | 41.29113 | 2.06865 | 27 ft | 14 kts | 65° |
| 2026-05-04 15:23 | 41.29158 | 2.06996 | 26 ft | 18 kts | 65° |
| 2026-05-04 15:23 | 41.29212 | 2.07158 | 24 ft | 21 kts | 66° |
| 2026-05-04 15:23 | 41.29273 | 2.07336 | 24 ft | 20 kts | 64° |
| 2026-05-04 15:23 | 41.29328 | 2.07493 | 24 ft | 17 kts | 69° |
| 2026-05-04 15:24 | 41.29398 | 2.07725 | 26 ft | 9 kts | 65° |
| 2026-05-04 15:24 | 41.29428 | 2.07812 | 23 ft | 1 kts | 65° |
| 2026-05-04 15:25 | 41.29429 | 2.07813 | 22 ft | 0 kts | 65° |
| 2026-05-04 15:25 | 41.29436 | 2.07835 | 24 ft | 9 kts | 65° |
| 2026-05-04 15:25 | 41.29483 | 2.07971 | 22 ft | 23 kts | 65° |
| 2026-05-04 15:26 | 41.29575 | 2.08315 | 24 ft | 10 kts | 70° |
| 2026-05-04 15:26 | 41.29595 | 2.08378 | 24 ft | 5 kts | 66° |
| 2026-05-04 15:26 | 41.29617 | 2.08520 | 25 ft | 4 kts | 136° |
| 2026-05-04 15:27 | 41.29535 | 2.08569 | 23 ft | 22 kts | 155° |
| 2026-05-04 15:27 | 41.29288 | 2.08717 | 26 ft | 16 kts | 156° |
| 2026-05-04 15:28 | 41.29113 | 2.08824 | 22 ft | 12 kts | 156° |
| 2026-05-04 15:28 | 41.29034 | 2.08870 | 22 ft | 14 kts | 156° |
| 2026-05-04 15:28 | 41.28942 | 2.08953 | 25 ft | 4 kts | 92° |
| 2026-05-04 15:29 | 41.28962 | 2.09021 | 26 ft | 10 kts | 65° |
| 2026-05-04 15:30 | 41.29165 | 2.09611 | 26 ft | 10 kts | 65° |
| 2026-05-04 15:30 | 41.29268 | 2.10047 | 22 ft | 11 kts | 115° |
| 2026-05-04 15:31 | 41.29238 | 2.10143 | 25 ft | 0 kts | 112° |
| 2026-05-04 15:33 | 41.29237 | 2.10144 | 25 ft | 1 kts | 112° |
| 2026-05-04 15:34 | 41.29223 | 2.10293 | 24 ft | 3 kts | 179° |
| 2026-05-04 15:34 | 41.29198 | 2.10260 | 23 ft | 6 kts | 244° |
| 2026-05-04 15:34 | 41.29043 | 2.09804 | 29 ft | 81 kts | 245° |
| 2026-05-04 15:35 | 41.28260 | 2.07507 | 118 ft | 182 kts | 246° |
| 2026-05-04 15:35 | 41.27744 | 2.06044 | 1170 ft | 174 kts | 237° |
| 2026-05-04 15:35 | 41.26769 | 2.05072 | 1886 ft | 191 kts | 191° |
| 2026-05-04 15:36 | 41.23945 | 2.05431 | 3668 ft | 212 kts | 172° |
| 2026-05-04 15:36 | 41.22465 | 2.05642 | 4720 ft | 214 kts | 180° |
| 2026-05-04 15:36 | 41.20974 | 2.05670 | 5610 ft | 216 kts | 182° |
| 2026-05-04 15:37 | 41.19457 | 2.05671 | 6510 ft | 220 kts | 182° |
| 2026-05-04 15:37 | 41.17922 | 2.05653 | 7410 ft | 224 kts | 184° |
| 2026-05-04 15:37 | 41.16327 | 2.05603 | 8279 ft | 232 kts | 185° |
| 2026-05-04 15:37 | 41.14699 | 2.05537 | 9168 ft | 236 kts | 185° |
| 2026-05-04 15:38 | 41.13071 | 2.05465 | 10020 ft | 239 kts | 185° |
| 2026-05-04 15:38 | 41.11400 | 2.05389 | 10813 ft | 242 kts | 186° |
| 2026-05-04 15:38 | 41.09709 | 2.05310 | 11586 ft | 245 kts | 186° |
| 2026-05-04 15:38 | 41.07995 | 2.05229 | 12367 ft | 248 kts | 186° |
| 2026-05-04 15:39 | 41.06257 | 2.05146 | 13141 ft | 251 kts | 186° |
| 2026-05-04 15:39 | 41.04500 | 2.05063 | 13888 ft | 254 kts | 186° |
| 2026-05-04 15:39 | 41.00921 | 2.05440 | 15188 ft | 272 kts | 163° |
| 2026-05-04 15:40 | 40.99316 | 2.06879 | 15735 ft | 293 kts | 138° |
| 2026-05-04 15:40 | 40.98234 | 2.09314 | 15999 ft | 322 kts | 116° |
| 2026-05-04 15:40 | 40.97472 | 2.12195 | 16242 ft | 341 kts | 113° |
| 2026-05-04 15:40 | 40.96723 | 2.15245 | 16478 ft | 357 kts | 112° |
| 2026-05-04 15:41 | 40.95994 | 2.18465 | 16707 ft | 374 kts | 108° |
| 2026-05-04 15:41 | 40.95592 | 2.21903 | 16908 ft | 393 kts | 97° |
| 2026-05-04 15:41 | 40.95705 | 2.25593 | 17138 ft | 411 kts | 84° |
| 2026-05-04 15:41 | 40.96431 | 2.29321 | 17331 ft | 428 kts | 70° |
| 2026-05-04 15:42 | 40.97804 | 2.32865 | 17656 ft | 438 kts | 56° |
| 2026-05-04 15:42 | 40.99747 | 2.36005 | 18126 ft | 443 kts | 46° |
| 2026-05-04 15:42 | 41.01920 | 2.38926 | 18567 ft | 448 kts | 44° |
| 2026-05-04 15:42 | 41.04134 | 2.41842 | 18839 ft | 450 kts | 44° |
| 2026-05-04 15:43 | 41.05606 | 2.43787 | 18892 ft | 451 kts | 44° |
| 2026-05-04 15:43 | 41.08548 | 2.47694 | 18911 ft | 453 kts | 44° |
| 2026-05-04 15:43 | 41.10768 | 2.50657 | 18920 ft | 453 kts | 44° |
| 2026-05-04 15:43 | 41.12986 | 2.53625 | 18912 ft | 453 kts | 44° |
| 2026-05-04 15:44 | 41.15202 | 2.56596 | 18928 ft | 453 kts | 45° |
| 2026-05-04 15:44 | 41.17408 | 2.59578 | 18913 ft | 453 kts | 45° |
| 2026-05-04 15:44 | 41.19620 | 2.62548 | 18916 ft | 453 kts | 44° |
| 2026-05-04 15:44 | 41.21087 | 2.64518 | 18916 ft | 453 kts | 44° |
| 2026-05-04 15:45 | 41.23299 | 2.67492 | 18901 ft | 453 kts | 44° |
| 2026-05-04 15:45 | 41.26226 | 2.71436 | 18913 ft | 452 kts | 44° |
| 2026-05-04 15:45 | 41.28431 | 2.74411 | 18918 ft | 452 kts | 44° |
| 2026-05-04 15:45 | 41.30636 | 2.77390 | 18918 ft | 452 kts | 45° |
| 2026-05-04 15:46 | 41.32840 | 2.80369 | 18928 ft | 452 kts | 45° |
| 2026-05-04 15:46 | 41.35042 | 2.83351 | 18923 ft | 451 kts | 45° |
| 2026-05-04 15:46 | 41.36497 | 2.85324 | 18922 ft | 451 kts | 45° |
| 2026-05-04 15:46 | 41.38700 | 2.88313 | 19028 ft | 453 kts | 45° |
| 2026-05-04 15:47 | 41.40913 | 2.91320 | 19505 ft | 456 kts | 45° |
| 2026-05-04 15:47 | 41.43140 | 2.94347 | 19942 ft | 459 kts | 45° |
| 2026-05-04 15:47 | 41.45376 | 2.97391 | 20378 ft | 463 kts | 45° |
| 2026-05-04 15:47 | 41.48372 | 3.01472 | 20923 ft | 467 kts | 45° |
| 2026-05-04 15:48 | 41.50651 | 3.04581 | 21318 ft | 471 kts | 45° |
| 2026-05-04 15:48 | 41.52947 | 3.07718 | 21727 ft | 473 kts | 45° |
| 2026-05-04 15:48 | 41.56785 | 3.12966 | 22409 ft | 478 kts | 45° |
| 2026-05-04 15:49 | 41.59116 | 3.16159 | 22767 ft | 481 kts | 45° |
| 2026-05-04 15:49 | 41.61461 | 3.19374 | 23123 ft | 485 kts | 45° |
| 2026-05-04 15:49 | 41.63821 | 3.22614 | 23469 ft | 488 kts | 45° |
| 2026-05-04 15:49 | 41.66192 | 3.25872 | 23774 ft | 491 kts | 45° |
| 2026-05-04 15:50 | 41.69352 | 3.30221 | 24171 ft | 494 kts | 45° |
| 2026-05-04 15:50 | 41.70967 | 3.32455 | 24370 ft | 495 kts | 46° |
| 2026-05-04 15:50 | 41.73159 | 3.36027 | 24661 ft | 498 kts | 56° |
| 2026-05-04 15:50 | 41.74840 | 3.39995 | 25034 ft | 497 kts | 64° |
| 2026-05-04 15:51 | 41.76347 | 3.44165 | 25309 ft | 499 kts | 67° |
| 2026-05-04 15:51 | 41.77762 | 3.48418 | 25567 ft | 501 kts | 68° |
| 2026-05-04 15:51 | 41.79143 | 3.52717 | 25838 ft | 503 kts | 69° |
| 2026-05-04 15:51 | 41.80521 | 3.57034 | 26106 ft | 505 kts | 69° |
| 2026-05-04 15:52 | 41.81913 | 3.61366 | 26342 ft | 507 kts | 68° |
| 2026-05-04 15:52 | 41.83324 | 3.65714 | 26581 ft | 510 kts | 68° |
| 2026-05-04 15:52 | 41.84750 | 3.70075 | 26845 ft | 511 kts | 68° |
| 2026-05-04 15:52 | 41.86185 | 3.74445 | 27091 ft | 513 kts | 68° |
| 2026-05-04 15:53 | 41.87609 | 3.78777 | 27318 ft | 515 kts | 68° |
| 2026-05-04 15:53 | 41.89058 | 3.83185 | 27520 ft | 517 kts | 68° |
| 2026-05-04 15:53 | 41.94536 | 3.99833 | 28549 ft | 519 kts | 68° |
| 2026-05-04 15:53 | 42.00260 | 4.17371 | 30198 ft | 507 kts | 69° |
| 2026-05-04 15:54 | 42.01636 | 4.21666 | 30220 ft | 491 kts | 69° |
| 2026-05-04 15:54 | 42.02968 | 4.25831 | 30221 ft | 480 kts | 69° |
| 2026-05-04 15:54 | 42.05592 | 4.34035 | 30220 ft | 477 kts | 69° |
| 2026-05-04 15:55 | 42.08771 | 4.41805 | 30223 ft | 481 kts | 52° |
| 2026-05-04 15:55 | 42.13465 | 4.48219 | 30212 ft | 481 kts | 43° |
| 2026-05-04 15:56 | 42.18446 | 4.54225 | 30229 ft | 480 kts | 41° |
| 2026-05-04 15:56 | 42.41547 | 4.81848 | 30306 ft | 466 kts | 42° |
| 2026-05-04 15:57 | 42.57798 | 5.00541 | 30166 ft | 470 kts | 19° |
| 2026-05-04 15:57 | 42.60888 | 5.01976 | 29968 ft | 469 kts | 14° |
| 2026-05-04 15:57 | 42.63872 | 5.03153 | 29954 ft | 469 kts | 13° |
| 2026-05-04 15:58 | 42.70074 | 5.05435 | 29958 ft | 469 kts | 12° |
| 2026-05-04 15:58 | 42.76361 | 5.07810 | 29961 ft | 469 kts | 13° |
| 2026-05-04 15:59 | 42.82631 | 5.10274 | 29963 ft | 469 kts | 13° |
| 2026-05-04 15:59 | 42.88886 | 5.12773 | 29964 ft | 469 kts | 13° |
| 2026-05-04 16:00 | 42.91971 | 5.14010 | 29806 ft | 467 kts | 13° |
| 2026-05-04 16:00 | 42.95092 | 5.15262 | 28958 ft | 471 kts | 13° |
| 2026-05-04 16:00 | 42.98257 | 5.16530 | 28141 ft | 474 kts | 13° |
| 2026-05-04 16:00 | 43.01423 | 5.17798 | 27404 ft | 474 kts | 13° |
| 2026-05-04 16:01 | 43.04588 | 5.19074 | 26664 ft | 474 kts | 13° |
| 2026-05-04 16:01 | 43.07751 | 5.20359 | 25925 ft | 474 kts | 13° |
| 2026-05-04 16:01 | 43.10906 | 5.21646 | 25171 ft | 473 kts | 14° |
| 2026-05-04 16:01 | 43.14055 | 5.22934 | 24544 ft | 470 kts | 13° |
| 2026-05-04 16:02 | 43.17175 | 5.24212 | 23993 ft | 465 kts | 13° |
| 2026-05-04 16:02 | 43.20255 | 5.25475 | 23443 ft | 460 kts | 13° |
| 2026-05-04 16:02 | 43.26280 | 5.27943 | 22214 ft | 450 kts | 14° |
| 2026-05-04 16:03 | 43.29271 | 5.29168 | 22014 ft | 448 kts | 14° |
| 2026-05-04 16:03 | 43.32261 | 5.30392 | 21989 ft | 449 kts | 14° |
| 2026-05-04 16:03 | 43.35258 | 5.31621 | 21993 ft | 450 kts | 14° |
| 2026-05-04 16:03 | 43.38151 | 5.33285 | 21995 ft | 454 kts | 28° |
| 2026-05-04 16:04 | 43.40845 | 5.35527 | 21991 ft | 452 kts | 30° |
| 2026-05-04 16:04 | 43.46116 | 5.40202 | 21987 ft | 451 kts | 31° |
| 2026-05-04 16:04 | 43.48695 | 5.42659 | 21972 ft | 452 kts | 39° |
| 2026-05-04 16:05 | 43.50783 | 5.45888 | 21993 ft | 453 kts | 57° |
| 2026-05-04 16:05 | 43.52116 | 5.49724 | 22007 ft | 450 kts | 70° |
| 2026-05-04 16:05 | 43.54222 | 5.57852 | 21988 ft | 450 kts | 71° |
| 2026-05-04 16:06 | 43.55301 | 5.61907 | 21991 ft | 450 kts | 71° |
| 2026-05-04 16:06 | 43.57226 | 5.72979 | 21996 ft | 446 kts | 87° |
| 2026-05-04 16:07 | 43.57579 | 5.78666 | 22012 ft | 444 kts | 87° |
| 2026-05-04 16:07 | 43.58369 | 5.91150 | 20862 ft | 425 kts | 87° |
| 2026-05-04 16:08 | 43.58629 | 5.95142 | 20678 ft | 412 kts | 87° |
| 2026-05-04 16:08 | 43.59369 | 6.06674 | 19252 ft | 403 kts | 88° |
| 2026-05-04 16:09 | 43.58559 | 6.14196 | 17769 ft | 399 kts | 113° |
| 2026-05-04 16:09 | 43.56550 | 6.21330 | 16358 ft | 397 kts | 114° |
| 2026-05-04 16:10 | 43.54639 | 6.28160 | 15929 ft | 371 kts | 114° |
| 2026-05-04 16:11 | 43.52047 | 6.37504 | 15669 ft | 330 kts | 115° |
| 2026-05-04 16:11 | 43.51234 | 6.40426 | 15415 ft | 324 kts | 115° |
| 2026-05-04 16:12 | 43.47485 | 6.47714 | 14362 ft | 308 kts | 138° |
| 2026-05-04 16:12 | 43.43017 | 6.54086 | 12597 ft | 312 kts | 137° |
| 2026-05-04 16:13 | 43.40179 | 6.58576 | 11080 ft | 314 kts | 121° |
| 2026-05-04 16:13 | 43.40089 | 6.64360 | 10193 ft | 306 kts | 69° |
| 2026-05-04 16:14 | 43.42140 | 6.69329 | 9105 ft | 297 kts | 62° |
| 2026-05-04 16:14 | 43.44241 | 6.74142 | 8128 ft | 288 kts | 63° |
| 2026-05-04 16:15 | 43.46379 | 6.81356 | 7093 ft | 261 kts | 97° |
| 2026-05-04 16:16 | 43.45715 | 6.86218 | 6037 ft | 258 kts | 103° |
| 2026-05-04 16:16 | 43.44676 | 6.92748 | 4889 ft | 218 kts | 102° |
| 2026-05-04 16:17 | 43.44038 | 6.96823 | 4072 ft | 211 kts | 101° |
| 2026-05-04 16:18 | 43.43146 | 7.02578 | 4043 ft | 202 kts | 101° |
| 2026-05-04 16:18 | 43.42851 | 7.04479 | 4057 ft | 204 kts | 101° |
| 2026-05-04 16:19 | 43.42282 | 7.10035 | 4053 ft | 184 kts | 82° |
| 2026-05-04 16:19 | 43.43474 | 7.13086 | 4037 ft | 188 kts | 47° |
| 2026-05-04 16:20 | 43.46702 | 7.16211 | 4039 ft | 198 kts | 13° |
| 2026-05-04 16:20 | 43.49506 | 7.16104 | 4040 ft | 203 kts | 2° |
| 2026-05-04 16:21 | 43.53739 | 7.15643 | 3661 ft | 206 kts | 0° |
| 2026-05-04 16:22 | 43.56436 | 7.15461 | 3391 ft | 180 kts | 14° |
| 2026-05-04 16:22 | 43.60183 | 7.15606 | 2352 ft | 184 kts | 4° |
| 2026-05-04 16:23 | 43.63417 | 7.17820 | 778 ft | 182 kts | 53° |
| 2026-05-04 16:24 | 43.66149 | 7.21733 | 27 ft | 54 kts | 45° |
| 2026-05-04 16:25 | 43.66335 | 7.21959 | 29 ft | 11 kts | 32° |
| 2026-05-04 16:26 | 43.66629 | 7.21919 | 27 ft | 7 kts | 315° |
| 2026-05-04 16:26 | 43.66563 | 7.21742 | 27 ft | 11 kts | 225° |
| 2026-05-04 16:27 | 43.66514 | 7.21674 | 27 ft | 2 kts | 225° |
| 2026-05-04 16:28 | 43.66513 | 7.21604 | 27 ft | 3 kts | 313° |